Time;durP1;ratioP1;P1;durP2;ratioP2;P2;SDS_P1;SDS_P2;PMS_P1;PMS_P2;Temp;Humidity;BMP_temperature;BMP_pressure;BME280_temperature;BME280_humidity;BME280_pressure;Samples;Min_cycle;Max_cycle;Signal;HPM_P1;HPM_P2
2022/10/12 03:03:00;;;;;;;;;;;4.10;99.90;;;;;;5067521;23;19925;-67
2022/10/12 03:05:27;;;;;;;;;;;4.00;99.90;;;;;;5027930;28;19979;-67
2022/10/12 03:07:54;;;;;;;;;;;4.10;99.90;;;;;;5031520;28;19980;-67
2022/10/12 03:10:20;;;;;;;;;;;4.00;99.90;;;;;;5031474;28;19960;-66
2022/10/12 03:12:47;;;;;;;;;;;4.00;99.90;;;;;;5013081;28;19979;-67
2022/10/12 03:15:14;;;;;;;;;;;3.90;99.90;;;;;;5010452;28;19925;-64
2022/10/12 03:17:40;;;;;;;;;;;3.90;99.90;;;;;;5011535;28;20473;-66
2022/10/12 03:20:09;;;;;;;;;;;3.90;99.90;;;;;;5011396;28;19925;-66
2022/10/12 03:22:36;;;;;;;;;;;3.90;99.90;;;;;;5010720;28;19929;-66
2022/10/12 03:25:03;;;;;;;;;;;3.80;99.90;;;;;;5011471;28;19976;-66
2022/10/12 03:27:29;;;;;;;;;;;3.90;99.90;;;;;;5011567;28;19925;-64
2022/10/12 03:29:56;;;;;;;;;;;3.80;99.90;;;;;;5010980;28;20362;-65
2022/10/12 03:32:23;;;;;;;;;;;3.80;99.90;;;;;;5010363;28;19925;-67
2022/10/12 03:34:50;;;;;;;;;;;3.80;99.90;;;;;;5011454;28;19979;-65
2022/10/12 03:37:18;;;;;;;;;;;3.70;99.90;;;;;;5011349;28;20430;-67
2022/10/12 03:39:45;;;;;;;;;;;3.70;99.90;;;;;;5011006;28;20365;-66
2022/10/12 03:42:12;;;;;;;;;;;3.60;99.90;;;;;;5010308;28;20408;-65
2022/10/12 03:44:39;;;;;;;;;;;3.70;99.90;;;;;;5011039;28;19932;-66
2022/10/12 03:47:06;;;;;;;;;;;3.60;99.90;;;;;;5011202;28;19926;-66
2022/10/12 03:49:33;;;;;;;;;;;3.60;99.90;;;;;;5010750;28;20316;-65
2022/10/12 03:51:59;;;;;;;;;;;3.50;99.90;;;;;;5010887;28;19956;-66
2022/10/12 03:54:27;;;;;;;;;;;3.60;99.90;;;;;;5010398;28;20355;-66
2022/10/12 03:56:54;;;;;;;;;;;3.50;99.90;;;;;;5011134;28;19932;-65
2022/10/12 03:59:21;;;;;;;;;;;3.50;99.90;;;;;;5010818;28;19933;-66
2022/10/12 04:01:48;;;;;;;;;;;3.50;99.90;;;;;;5010668;28;19948;-66
2022/10/12 04:04:15;;;;;;;;;;;3.60;99.90;;;;;;5010439;28;19929;-66
2022/10/12 04:06:41;;;;;;;;;;;3.60;99.90;;;;;;5011062;28;19937;-66
2022/10/12 04:09:08;;;;;;;;;;;3.60;99.90;;;;;;5010725;28;19929;-66
2022/10/12 04:11:36;;;;;;;;;;;3.60;99.90;;;;;;5010647;28;19972;-66
2022/10/12 04:14:03;;;;;;;;;;;3.70;99.90;;;;;;5009950;28;20454;-66
2022/10/12 04:16:30;;;;;;;;;;;3.70;99.90;;;;;;5010748;28;19932;-66
2022/10/12 04:18:56;;;;;;;;;;;3.80;99.90;;;;;;5010223;28;19976;-66
2022/10/12 04:21:24;;;;;;;;;;;3.80;99.90;;;;;;5010409;28;19979;-67
2022/10/12 04:23:51;;;;;;;;;;;3.80;99.90;;;;;;5010087;28;19926;-67
2022/10/12 04:26:18;;;;;;;;;;;3.80;99.90;;;;;;5010317;28;19948;-68
2022/10/12 04:28:46;;;;;;;;;;;3.90;99.90;;;;;;5010616;28;19925;-64
2022/10/12 04:31:12;;;;;;;;;;;4.00;99.90;;;;;;5010316;28;19980;-65
2022/10/12 04:33:39;;;;;;;;;;;4.00;99.90;;;;;;5009876;28;19925;-66
2022/10/12 04:36:06;;;;;;;;;;;4.00;99.90;;;;;;5010486;28;19925;-66
2022/10/12 04:38:33;;;;;;;;;;;4.00;99.90;;;;;;5010142;28;20293;-67
2022/10/12 04:41:00;;;;;;;;;;;4.00;99.90;;;;;;5010028;28;19995;-66
2022/10/12 04:43:27;;;;;;;;;;;4.00;99.90;;;;;;5009883;28;20380;-67
2022/10/12 04:45:55;;;;;;;;;;;4.00;99.90;;;;;;5010364;28;19929;-69
2022/10/12 04:48:22;;;;;;;;;;;4.00;99.90;;;;;;5010396;28;19930;-66
2022/10/12 04:50:49;;;;;;;;;;;4.00;99.90;;;;;;5000846;28;20344;-66
2022/10/12 04:53:16;;;;;;;;;;;4.00;99.90;;;;;;4990024;28;19933;-66
2022/10/12 04:55:42;;;;;;;;;;;3.90;99.90;;;;;;4990712;28;19929;-66
2022/10/12 04:58:09;;;;;;;;;;;3.90;99.90;;;;;;4990409;28;19933;-66
2022/10/12 05:00:36;;;;;;;;;;;3.90;99.90;;;;;;4989629;28;19929;-67
2022/10/12 05:03:05;;;;;;;;;;;3.90;99.90;;;;;;4998395;28;20472;-66
2022/10/12 05:05:33;;;;;;;;;;;3.80;99.90;;;;;;5014001;28;19929;-68
2022/10/12 05:08:00;;;;;;;;;;;3.80;99.90;;;;;;4998079;28;19930;-68
2022/10/12 05:10:27;;;;;;;;;;;3.80;99.90;;;;;;5010646;28;19933;-67
2022/10/12 05:12:53;;;;;;;;;;;3.80;99.90;;;;;;4993416;28;19930;-66
2022/10/12 05:15:20;;;;;;;;;;;3.80;99.90;;;;;;5010603;28;19980;-66
2022/10/12 05:17:47;;;;;;;;;;;3.70;99.90;;;;;;5010404;28;19929;-66
2022/10/12 05:20:15;;;;;;;;;;;3.70;99.90;;;;;;5021210;28;19925;-66
2022/10/12 05:22:42;;;;;;;;;;;3.70;99.90;;;;;;5010607;28;19956;-69
2022/10/12 05:25:09;;;;;;;;;;;3.70;99.90;;;;;;5001926;28;19948;-66
2022/10/12 05:27:36;;;;;;;;;;;3.70;99.90;;;;;;5002254;28;19977;-68
2022/10/12 05:30:03;;;;;;;;;;;3.70;99.90;;;;;;5003318;28;19930;-68
2022/10/12 05:32:29;;;;;;;;;;;3.60;99.90;;;;;;5003005;28;19930;-67
2022/10/12 05:34:56;;;;;;;;;;;3.60;99.90;;;;;;4993424;28;20401;-66
2022/10/12 05:37:24;;;;;;;;;;;3.60;99.90;;;;;;5005831;28;19925;-65
2022/10/12 05:39:51;;;;;;;;;;;3.60;99.90;;;;;;5013123;28;19930;-66
2022/10/12 05:42:18;;;;;;;;;;;3.60;99.90;;;;;;5012734;28;20024;-66
2022/10/12 05:44:45;;;;;;;;;;;3.70;99.90;;;;;;5013200;28;19975;-65
2022/10/12 05:47:12;;;;;;;;;;;3.70;99.90;;;;;;5013525;28;19930;-66
2022/10/12 05:49:38;;;;;;;;;;;3.70;99.90;;;;;;5012974;28;19929;-67
2022/10/12 05:52:05;;;;;;;;;;;3.70;99.90;;;;;;4994210;28;19977;-66
2022/10/12 05:54:33;;;;;;;;;;;3.80;99.90;;;;;;4993402;28;19933;-66
2022/10/12 05:57:00;;;;;;;;;;;3.80;99.90;;;;;;4993727;28;19977;-66
2022/10/12 05:59:27;;;;;;;;;;;3.80;99.90;;;;;;4993306;28;20463;-67
2022/10/12 06:01:53;;;;;;;;;;;3.70;99.90;;;;;;4993264;28;19933;-67
2022/10/12 06:04:20;;;;;;;;;;;3.70;99.90;;;;;;4993160;28;20363;-67
2022/10/12 06:06:47;;;;;;;;;;;3.80;99.90;;;;;;4993615;28;19926;-70
2022/10/12 06:09:14;;;;;;;;;;;3.70;99.90;;;;;;4993050;28;19926;-66
2022/10/12 06:11:42;;;;;;;;;;;3.80;99.90;;;;;;5006044;28;19929;-67
2022/10/12 06:14:09;;;;;;;;;;;3.80;99.90;;;;;;5011979;28;20400;-66
2022/10/12 06:16:36;;;;;;;;;;;3.80;99.90;;;;;;5012801;28;19926;-68
2022/10/12 06:19:02;;;;;;;;;;;3.80;99.90;;;;;;5012563;28;19935;-66
2022/10/12 06:21:29;;;;;;;;;;;3.90;99.90;;;;;;5012468;28;19925;-67
2022/10/12 06:23:56;;;;;;;;;;;3.90;99.90;;;;;;5012028;28;19925;-68
2022/10/12 06:26:23;;;;;;;;;;;3.90;99.90;;;;;;5012735;28;19929;-67
2022/10/12 06:28:51;;;;;;;;;;;3.90;99.90;;;;;;5012297;28;19929;-67
2022/10/12 06:31:18;;;;;;;;;;;3.90;99.90;;;;;;5012292;28;19945;-68
2022/10/12 06:33:45;;;;;;;;;;;4.10;99.90;;;;;;5011455;28;20021;-67
2022/10/12 06:36:12;;;;;;;;;;;4.10;99.90;;;;;;5012349;28;20363;-66
2022/10/12 06:38:38;;;;;;;;;;;4.20;99.90;;;;;;5004547;28;19959;-66
2022/10/12 06:41:05;;;;;;;;;;;4.30;99.90;;;;;;5000256;28;19926;-66
2022/10/12 06:43:32;;;;;;;;;;;4.30;99.90;;;;;;5005740;28;20363;-66
2022/10/12 06:46:01;;;;;;;;;;;4.40;99.90;;;;;;4997918;28;19933;-66
2022/10/12 06:48:28;;;;;;;;;;;4.50;99.90;;;;;;4994855;28;19926;-66
2022/10/12 06:50:55;;;;;;;;;;;4.60;99.90;;;;;;5015635;28;19929;-67
2022/10/12 06:53:22;;;;;;;;;;;4.70;99.90;;;;;;5000955;28;20348;-66
2022/10/12 06:55:48;;;;;;;;;;;4.80;99.90;;;;;;5012263;28;19933;-67
2022/10/12 06:58:15;;;;;;;;;;;4.90;99.90;;;;;;5011712;28;19925;-67
2022/10/12 07:00:42;;;;;;;;;;;4.90;99.90;;;;;;5011629;28;19979;-67
2022/10/12 07:03:12;;;;;;;;;;;5.00;99.90;;;;;;5006871;28;19929;-67
2022/10/12 07:05:38;;;;;;;;;;;5.10;99.90;;;;;;5000752;28;19930;-66
2022/10/12 07:08:05;;;;;;;;;;;5.10;99.90;;;;;;5002493;28;19933;-66
2022/10/12 07:10:32;;;;;;;;;;;5.20;99.90;;;;;;5001588;28;20453;-66
2022/10/12 07:12:59;;;;;;;;;;;5.30;99.90;;;;;;4997168;28;19934;-67
2022/10/12 07:15:25;;;;;;;;;;;5.40;99.90;;;;;;4991877;28;20293;-68
2022/10/12 07:17:52;;;;;;;;;;;5.50;99.90;;;;;;4992360;28;19925;-75
2022/10/12 07:20:20;;;;;;;;;;;5.60;99.90;;;;;;4991633;28;19933;-69
2022/10/12 07:22:47;;;;;;;;;;;5.60;99.90;;;;;;4991298;28;19930;-69
2022/10/12 07:25:14;;;;;;;;;;;5.80;99.90;;;;;;4991205;28;19984;-67
2022/10/12 07:27:41;;;;;;;;;;;5.90;99.90;;;;;;4992289;28;19976;-66
2022/10/12 07:30:09;;;;;;;;;;;6.00;99.90;;;;;;4989416;28;19929;-66
2022/10/12 07:32:36;;;;;;;;;;;6.10;99.90;;;;;;5006311;28;19925;-66
2022/10/12 07:35:02;;;;;;;;;;;6.30;99.90;;;;;;5003226;28;19949;-66
2022/10/12 07:37:31;;;;;;;;;;;6.40;99.90;;;;;;4995844;28;19968;-66
2022/10/12 07:39:57;;;;;;;;;;;6.60;99.90;;;;;;4990237;28;19948;-65
2022/10/12 07:42:24;;;;;;;;;;;6.70;99.90;;;;;;4991195;28;19934;-66
2022/10/12 07:44:51;;;;;;;;;;;6.80;99.90;;;;;;4991664;28;19973;-65
2022/10/12 07:47:18;;;;;;;;;;;6.90;99.90;;;;;;4991965;28;19930;-66
2022/10/12 07:49:45;;;;;;;;;;;7.00;99.90;;;;;;4990619;28;19930;-66
2022/10/12 07:52:11;;;;;;;;;;;7.20;99.90;;;;;;4990690;28;19929;-66
2022/10/12 07:54:40;;;;;;;;;;;7.30;99.90;;;;;;4990354;28;20021;-66
2022/10/12 07:57:06;;;;;;;;;;;7.50;99.90;;;;;;4991357;28;19929;-68
2022/10/12 07:59:33;;;;;;;;;;;7.60;99.90;;;;;;4991283;28;20364;-66
2022/10/12 08:02:00;;;;;;;;;;;7.70;99.90;;;;;;4991136;28;20435;-67
2022/10/12 08:04:27;;;;;;;;;;;7.90;99.90;;;;;;4991939;28;19926;-66
2022/10/12 08:06:54;;;;;;;;;;;8.00;99.90;;;;;;4991766;28;19930;-67
2022/10/12 08:09:21;;;;;;;;;;;8.10;99.90;;;;;;4991029;28;19934;-67
2022/10/12 08:11:49;;;;;;;;;;;8.10;99.90;;;;;;5005444;28;19975;-67
2022/10/12 08:14:17;;;;;;;;;;;8.20;99.90;;;;;;5010146;28;19925;-67
2022/10/12 08:16:44;;;;;;;;;;;8.30;99.90;;;;;;5011164;28;20359;-67
2022/10/12 08:19:11;;;;;;;;;;;8.40;99.90;;;;;;5010687;28;19929;-66
2022/10/12 08:21:38;;;;;;;;;;;8.40;99.90;;;;;;5010350;28;19929;-66
2022/10/12 08:24:05;;;;;;;;;;;8.50;99.90;;;;;;5009811;28;19933;-66
2022/10/12 08:26:32;;;;;;;;;;;8.60;99.90;;;;;;5007328;28;19933;-66
2022/10/12 08:29:01;;;;;;;;;;;8.60;99.90;;;;;;5002728;28;20355;-66
2022/10/12 08:31:28;;;;;;;;;;;8.60;99.90;;;;;;4995496;28;19972;-66
2022/10/12 08:33:54;;;;;;;;;;;8.80;99.90;;;;;;4996726;28;20351;-67
2022/10/12 08:36:21;;;;;;;;;;;8.90;99.90;;;;;;5007310;28;19980;-66
2022/10/12 08:38:52;;;;;;;;;;;9.00;99.90;;;;;;4989800;28;19926;-68
2022/10/12 08:41:26;;;;;;;;;;;9.20;99.90;;;;;;4988804;28;19926;-67
2022/10/12 08:44:01;;;;;;;;;;;9.30;99.90;;;;;;4989222;28;19925;-66
2022/10/12 08:46:29;;;;;;;;;;;9.40;99.90;;;;;;4990245;28;19933;-66
2022/10/12 08:48:58;;;;;;;;;;;9.50;99.90;;;;;;4989668;28;19925;-66
2022/10/12 08:51:27;;;;;;;;;;;9.50;99.90;;;;;;4989993;28;20327;-67
2022/10/12 08:53:55;;;;;;;;;;;9.50;99.90;;;;;;4989246;28;19973;-66
2022/10/12 08:56:22;;;;;;;;;;;9.60;99.90;;;;;;4990059;28;20278;-67
2022/10/12 08:58:50;;;;;;;;;;;9.70;99.90;;;;;;4989932;28;20336;-66
2022/10/12 09:01:21;;;;;;;;;;;9.80;99.90;;;;;;4989153;28;20355;-66
2022/10/12 09:03:53;;;;;;;;;;;9.90;99.90;;;;;;4988994;28;19929;-66
2022/10/12 09:06:22;;;;;;;;;;;10.10;99.90;;;;;;4989927;28;19926;-67
2022/10/12 09:08:58;;;;;;;;;;;10.20;99.90;;;;;;4989522;28;20340;-67
2022/10/12 09:11:39;;;;;;;;;;;10.40;99.90;;;;;;5000149;28;19930;-67
2022/10/12 09:14:08;;;;;;;;;;;10.50;99.90;;;;;;5008667;28;19936;-67
2022/10/12 09:16:36;;;;;;;;;;;10.70;99.90;;;;;;5000580;28;20024;-66
2022/10/12 09:19:08;;;;;;;;;;;10.90;99.90;;;;;;4990238;28;19974;-66
2022/10/12 09:21:35;;;;;;;;;;;11.00;99.90;;;;;;5007406;28;19936;-67
2022/10/12 09:24:03;;;;;;;;;;;11.20;99.90;;;;;;5008276;28;19956;-67
2022/10/12 09:26:33;;;;;;;;;;;11.30;99.90;;;;;;5009326;28;19926;-67
2022/10/12 09:29:01;;;;;;;;;;;11.50;99.90;;;;;;5009059;28;20349;-67
2022/10/12 09:31:34;;;;;;;;;;;11.60;99.90;;;;;;5009077;28;19926;-67
2022/10/12 09:34:04;;;;;;;;;;;11.80;99.90;;;;;;5008349;28;19926;-68
2022/10/12 09:36:35;;;;;;;;;;;12.10;99.90;;;;;;5009159;28;19926;-67
2022/10/12 09:39:02;;;;;;;;;;;12.30;99.90;;;;;;5008838;28;19929;-67
2022/10/12 09:41:31;;;;;;;;;;;12.50;99.90;;;;;;5008859;28;19932;-66
2022/10/12 09:43:59;;;;;;;;;;;12.80;99.90;;;;;;5008283;28;19929;-67
2022/10/12 09:46:29;;;;;;;;;;;13.10;99.90;;;;;;5009729;28;19941;-67
2022/10/12 09:48:56;;;;;;;;;;;13.40;99.90;;;;;;5012442;28;19993;-68
2022/10/12 09:51:23;;;;;;;;;;;13.80;99.90;;;;;;5012925;28;19929;-68
2022/10/12 09:53:51;;;;;;;;;;;14.10;99.90;;;;;;5012555;28;19932;-68
2022/10/12 09:56:23;;;;;;;;;;;14.50;99.90;;;;;;5013404;28;19932;-66
2022/10/12 09:58:50;;;;;;;;;;;14.50;99.90;;;;;;5012856;28;20359;-66
2022/10/12 10:01:20;;;;;;;;;;;14.60;99.90;;;;;;5013055;28;19940;-68
2022/10/12 10:03:51;;;;;;;;;;;14.90;99.90;;;;;;5012234;28;19932;-65
2022/10/12 10:06:22;;;;;;;;;;;15.00;99.90;;;;;;5013016;28;20016;-68
2022/10/12 10:08:51;;;;;;;;;;;15.00;99.90;;;;;;5012299;28;19929;-67
2022/10/12 10:11:20;;;;;;;;;;;15.20;99.90;;;;;;5003254;28;19926;-67
2022/10/12 10:13:49;;;;;;;;;;;15.40;99.90;;;;;;5005150;28;19933;-67
2022/10/12 10:16:16;;;;;;;;;;;15.80;99.90;;;;;;4995363;28;19930;-66
2022/10/12 10:18:43;;;;;;;;;;;16.10;99.90;;;;;;5011732;28;19931;-66
2022/10/12 10:21:11;;;;;;;;;;;16.20;99.90;;;;;;5011986;28;19964;-66
2022/10/12 10:23:40;;;;;;;;;;;16.30;99.90;;;;;;5012790;28;19984;-66
2022/10/12 10:26:09;;;;;;;;;;;16.90;99.90;;;;;;5012723;28;19932;-66
2022/10/12 10:28:37;;;;;;;;;;;18.50;99.90;;;;;;5013413;28;20391;-66
2022/10/12 10:31:05;;;;;;;;;;;20.60;99.90;;;;;;5012908;28;19976;-66
2022/10/12 10:33:33;;;;;;;;;;;23.60;99.90;;;;;;5011880;28;19925;-67
2022/10/12 10:36:03;;;;;;;;;;;25.00;99.90;;;;;;5003212;28;19925;-66
2022/10/12 10:38:31;;;;;;;;;;;24.70;99.90;;;;;;4993319;28;20020;-68
2022/10/12 10:40:59;;;;;;;;;;;25.00;99.90;;;;;;4993257;28;19933;-68
2022/10/12 10:43:29;;;;;;;;;;;25.80;99.90;;;;;;5009264;28;20344;-67
2022/10/12 10:45:56;;;;;;;;;;;26.60;99.90;;;;;;5012863;28;20414;-67
2022/10/12 10:48:27;;;;;;;;;;;26.60;99.90;;;;;;5009595;28;19932;-67
2022/10/12 10:50:55;;;;;;;;;;;29.20;99.90;;;;;;4997077;28;19926;-66
2022/10/12 10:53:23;;;;;;;;;;;28.10;99.90;;;;;;5027106;28;20355;-68
2022/10/12 10:55:52;;;;;;;;;;;28.60;99.90;;;;;;5004697;28;19926;-69
2022/10/12 10:58:23;;;;;;;;;;;28.60;99.90;;;;;;5008607;28;19930;-69
2022/10/12 11:00:53;;;;;;;;;;;28.30;99.90;;;;;;5011818;28;20018;-69
2022/10/12 11:03:22;;;;;;;;;;;30.10;99.90;;;;;;5012293;28;19930;-70
2022/10/12 11:05:51;;;;;;;;;;;31.40;99.90;;;;;;5009906;28;19925;-69
2022/10/12 11:08:20;;;;;;;;;;;29.90;99.90;;;;;;4987785;28;20341;-68
2022/10/12 11:10:50;;;;;;;;;;;26.70;99.90;;;;;;4995297;28;19934;-68
2022/10/12 11:13:18;;;;;;;;;;;25.20;99.90;;;;;;5008691;28;19926;-70
2022/10/12 11:15:48;;;;;;;;;;;25.10;99.90;;;;;;5009780;28;19929;-69
2022/10/12 11:18:18;;;;;;;;;;;26.30;99.90;;;;;;5001506;28;20269;-70
2022/10/12 11:20:51;;;;;;;;;;;25.40;99.90;;;;;;4998356;28;19934;-69
2022/10/12 11:23:22;;;;;;;;;;;24.40;99.90;;;;;;4992061;28;19929;-68
2022/10/12 11:25:55;;;;;;;;;;;23.90;99.90;;;;;;5000935;28;20333;-71
2022/10/12 11:28:24;;;;;;;;;;;23.30;99.90;;;;;;5011652;28;19925;-72
2022/10/12 11:30:52;;;;;;;;;;;22.70;99.90;;;;;;5000994;28;20036;-71
2022/10/12 11:33:22;;;;;;;;;;;23.60;99.90;;;;;;4991719;28;19926;-72
2022/10/12 11:35:49;;;;;;;;;;;24.70;99.90;;;;;;4991805;28;20483;-72
2022/10/12 11:38:18;;;;;;;;;;;26.50;99.90;;;;;;4991992;28;19945;-71
2022/10/12 11:40:48;;;;;;;;;;;26.80;99.90;;;;;;4991384;28;19933;-71
2022/10/12 11:43:16;;;;;;;;;;;25.60;99.90;;;;;;4990994;28;19926;-72
2022/10/12 11:45:45;;;;;;;;;;;27.80;99.90;;;;;;4991119;28;19926;-72
2022/10/12 11:48:15;;;;;;;;;;;28.60;99.90;;;;;;4991403;28;20020;-71
2022/10/12 11:50:44;;;;;;;;;;;30.20;99.90;;;;;;5009503;28;20459;-70
2022/10/12 11:53:16;;;;;;;;;;;31.90;99.90;;;;;;5010552;28;20451;-72
2022/10/12 11:55:53;;;;;;;;;;;33.90;99.90;;;;;;5011454;28;19925;-71
2022/10/12 11:58:22;;;;;;;;;;;34.10;99.90;;;;;;5010995;28;20400;-73
2022/10/12 12:00:57;;;;;;;;;;;30.90;99.90;;;;;;5010813;28;19929;-72
2022/10/12 12:03:28;;;;;;;;;;;27.90;99.90;;;;;;5010160;28;19926;-71
2022/10/12 12:06:19;;;;;;;;;;;25.20;99.90;;;;;;5010413;28;20222;-72
2022/10/12 12:09:03;;;;;;;;;;;24.50;99.90;;;;;;5010169;28;19972;-71
2022/10/12 12:11:31;;;;;;;;;;;24.30;99.90;;;;;;5008889;28;19972;-71
2022/10/12 12:14:13;;;;;;;;;;;27.10;99.90;;;;;;5009124;28;20037;-72
2022/10/12 12:16:42;;;;;;;;;;;27.90;99.90;;;;;;5008783;28;20359;-72
2022/10/12 12:19:11;;;;;;;;;;;26.60;99.90;;;;;;5010256;28;20293;-71
2022/10/12 12:21:52;;;;;;;;;;;26.70;99.90;;;;;;5010312;28;19930;-73
2022/10/12 12:24:20;;;;;;;;;;;25.50;99.90;;;;;;5008588;28;20056;-72
2022/10/12 12:26:47;;;;;;;;;;;28.00;99.90;;;;;;5010728;28;19929;-72
2022/10/12 12:29:17;;;;;;;;;;;29.80;99.90;;;;;;5010164;28;19925;-71
2022/10/12 12:31:55;;;;;;;;;;;28.60;99.90;;;;;;5010720;28;19925;-72
2022/10/12 12:34:22;;;;;;;;;;;27.70;99.90;;;;;;5009713;28;20028;-71
2022/10/12 12:36:50;;;;;;;;;;;28.20;99.90;;;;;;5010551;28;19968;-71
2022/10/12 12:39:22;;;;;;;;;;;28.10;99.90;;;;;;5010089;28;19976;-72
2022/10/12 12:41:51;;;;;;;;;;;28.20;99.90;;;;;;5010175;28;19925;-71
2022/10/12 12:44:39;;;;;;;;;;;28.30;99.90;;;;;;5009010;28;19937;-71
2022/10/12 12:47:17;;;;;;;;;;;27.70;99.90;;;;;;5010525;28;19925;-72
2022/10/12 12:49:45;;;;;;;;;;;26.90;99.90;;;;;;5009919;28;19930;-72
2022/10/12 12:52:14;;;;;;;;;;;28.20;99.90;;;;;;5009665;28;19926;-69
2022/10/12 12:54:46;;;;;;;;;;;30.40;99.90;;;;;;5009850;28;19933;-72
2022/10/12 12:57:26;;;;;;;;;;;30.00;99.90;;;;;;5010412;28;19930;-72
2022/10/12 12:59:59;;;;;;;;;;;31.50;99.90;;;;;;5009892;28;19972;-70
2022/10/12 13:02:41;;;;;;;;;;;32.30;99.90;;;;;;5009337;28;19987;-72
2022/10/12 13:05:26;;;;;;;;;;;31.90;99.90;;;;;;5010377;28;19930;-73
2022/10/12 13:07:59;;;;;;;;;;;29.00;99.90;;;;;;5009859;28;19979;-72
2022/10/12 13:10:37;;;;;;;;;;;28.00;99.90;;;;;;5006773;28;19932;-71
2022/10/12 13:13:13;;;;;;;;;;;26.00;99.90;;;;;;4989697;28;20392;-72
2022/10/12 13:15:46;;;;;;;;;;;27.40;99.90;;;;;;4990142;28;20388;-72
2022/10/12 13:18:23;;;;;;;;;;;28.40;99.90;;;;;;4990368;28;20404;-74
2022/10/12 13:20:50;;;;;;;;;;;29.70;99.90;;;;;;4995283;28;19926;-73
2022/10/12 13:23:20;;;;;;;;;;;30.40;99.90;;;;;;5001478;28;19980;-72
2022/10/12 13:25:50;;;;;;;;;;;29.90;99.90;;;;;;5004648;28;19930;-73
2022/10/12 13:28:19;;;;;;;;;;;29.40;99.90;;;;;;4996452;28;20370;-71
2022/10/12 13:30:51;;;;;;;;;;;27.90;99.90;;;;;;5011965;28;19936;-71
2022/10/12 13:33:21;;;;;;;;;;;27.70;99.90;;;;;;5012949;28;20032;-70
2022/10/12 13:35:49;;;;;;;;;;;26.10;99.90;;;;;;5003166;28;20359;-71
2022/10/12 13:38:20;;;;;;;;;;;25.70;99.90;;;;;;5004083;28;20344;-71
2022/10/12 13:40:53;;;;;;;;;;;24.30;99.90;;;;;;5012352;28;19929;-71
2022/10/12 13:43:24;;;;;;;;;;;24.50;99.90;;;;;;5012696;28;19929;-70
2022/10/12 13:45:51;;;;;;;;;;;24.10;99.90;;;;;;5013495;28;19930;-72
2022/10/12 13:48:19;;;;;;;;;;;23.60;99.90;;;;;;5013334;28;19976;-71
2022/10/12 13:50:52;;;;;;;;;;;23.10;99.90;;;;;;5012936;28;19930;-71
2022/10/12 13:53:19;;;;;;;;;;;21.90;99.90;;;;;;5012388;28;19936;-71
2022/10/12 13:55:59;;;;;;;;;;;22.20;99.90;;;;;;5004897;28;19930;-71
2022/10/12 13:58:28;;;;;;;;;;;22.70;99.90;;;;;;5002069;28;19926;-71
2022/10/12 14:00:55;;;;;;;;;;;23.10;99.90;;;;;;5004042;28;19929;-70
2022/10/12 14:03:24;;;;;;;;;;;23.80;99.90;;;;;;5002298;28;19925;-71
2022/10/12 14:05:52;;;;;;;;;;;23.20;99.90;;;;;;5003282;28;19933;-71
2022/10/12 14:08:21;;;;;;;;;;;23.80;99.90;;;;;;5001910;28;19930;-71
2022/10/12 14:10:48;;;;;;;;;;;23.40;99.90;;;;;;5004262;28;19932;-70
2022/10/12 14:13:22;;;;;;;;;;;23.20;99.90;;;;;;5003418;28;20339;-71
2022/10/12 14:15:49;;;;;;;;;;;23.50;99.90;;;;;;5004510;28;19984;-71
2022/10/12 14:18:31;;;;;;;;;;;23.90;99.90;;;;;;4994017;28;20021;-71
2022/10/12 14:21:04;;;;;;;;;;;25.00;99.90;;;;;;4993070;28;19933;-70
2022/10/12 14:23:31;;;;;;;;;;;25.10;99.90;;;;;;5004062;28;19976;-71
2022/10/12 14:25:57;;;;;;;;;;;25.20;99.90;;;;;;5012910;28;19930;-71
2022/10/12 14:28:31;;;;;;;;;;;24.30;99.90;;;;;;5012569;28;19948;-70
2022/10/12 14:30:58;;;;;;;;;;;24.50;99.90;;;;;;5001300;28;19926;-71
2022/10/12 14:33:25;;;;;;;;;;;25.40;99.90;;;;;;4992445;28;19933;-71
2022/10/12 14:36:11;;;;;;;;;;;26.70;99.90;;;;;;4993227;28;20286;-71
2022/10/12 14:38:39;;;;;;;;;;;28.00;99.90;;;;;;4993041;28;19926;-71
2022/10/12 14:41:24;;;;;;;;;;;27.50;99.90;;;;;;4992699;28;19926;-70
2022/10/12 14:44:03;;;;;;;;;;;26.90;99.90;;;;;;5001989;28;19926;-71
2022/10/12 14:46:30;;;;;;;;;;;27.40;99.90;;;;;;5012712;28;19971;-71
2022/10/12 14:48:57;;;;;;;;;;;27.10;99.90;;;;;;5012069;28;19926;-71
2022/10/12 14:51:24;;;;;;;;;;;27.60;99.90;;;;;;5011957;28;19933;-70
2022/10/12 14:53:57;;;;;;;;;;;28.40;99.90;;;;;;5011245;28;20367;-71
2022/10/12 14:56:24;;;;;;;;;;;27.30;99.90;;;;;;5012222;28;20359;-70
2022/10/12 14:58:51;;;;;;;;;;;26.60;99.90;;;;;;5012105;28;20377;-71
2022/10/12 15:01:19;;;;;;;;;;;26.50;99.90;;;;;;5011103;28;19929;-71
2022/10/12 15:03:46;;;;;;;;;;;26.50;99.90;;;;;;5011393;28;19929;-72
2022/10/12 15:06:13;;;;;;;;;;;26.70;99.90;;;;;;5011848;28;19987;-78
2022/10/12 15:08:40;;;;;;;;;;;25.90;99.90;;;;;;5011862;28;19929;-68
2022/10/12 15:11:07;;;;;;;;;;;26.00;99.90;;;;;;5003151;28;19930;-70
2022/10/12 15:13:33;;;;;;;;;;;25.70;99.90;;;;;;4991414;28;19933;-70
2022/10/12 15:16:01;;;;;;;;;;;25.70;99.90;;;;;;4991674;28;19925;-71
2022/10/12 15:18:29;;;;;;;;;;;26.10;99.90;;;;;;4991005;28;19926;-70
2022/10/12 15:20:56;;;;;;;;;;;26.10;99.90;;;;;;4992961;28;19984;-69
2022/10/12 15:23:23;;;;;;;;;;;25.70;99.90;;;;;;4992497;28;19925;-71
2022/10/12 15:25:51;;;;;;;;;;;24.00;99.90;;;;;;4992744;28;19930;-70
2022/10/12 15:28:18;;;;;;;;;;;22.90;99.90;;;;;;4999137;28;19937;-77
2022/10/12 15:30:45;;;;;;;;;;;22.10;99.90;;;;;;4990931;28;20041;-68
2022/10/12 15:33:12;;;;;;;;;;;21.80;99.90;;;;;;5007153;28;19940;-71
2022/10/12 15:35:41;;;;;;;;;;;21.40;99.90;;;;;;5005785;28;20471;-70
2022/10/12 15:38:08;;;;;;;;;;;20.40;99.90;;;;;;4999700;28;19926;-71
2022/10/12 15:40:36;;;;;;;;;;;20.20;99.90;;;;;;5003717;28;19973;-70
2022/10/12 15:43:03;;;;;;;;;;;20.40;99.90;;;;;;5000469;28;19951;-71
2022/10/12 15:45:31;;;;;;;;;;;21.00;99.90;;;;;;5008627;28;19991;-70
2022/10/12 15:47:58;;;;;;;;;;;21.30;99.90;;;;;;5003413;28;19933;-68
2022/10/12 15:50:27;;;;;;;;;;;21.20;99.90;;;;;;4999293;28;19926;-73
2022/10/12 15:52:55;;;;;;;;;;;20.70;99.90;;;;;;5002610;28;20365;-70
2022/10/12 15:55:23;;;;;;;;;;;20.30;99.90;;;;;;5004902;28;19957;-69
2022/10/12 15:57:50;;;;;;;;;;;19.80;99.90;;;;;;5000458;28;19930;-67
2022/10/12 16:00:18;;;;;;;;;;;19.50;99.90;;;;;;4998708;28;19925;-67
2022/10/12 16:02:45;;;;;;;;;;;19.30;99.90;;;;;;5001262;28;19925;-68
2022/10/12 16:05:17;;;;;;;;;;;19.10;99.90;;;;;;4999913;28;19929;-68
2022/10/12 16:07:44;;;;;;;;;;;18.70;99.90;;;;;;5007694;28;19929;-68
2022/10/12 16:10:14;;;;;;;;;;;18.10;99.90;;;;;;4998464;28;20303;-68
2022/10/12 16:12:41;;;;;;;;;;;18.20;99.90;;;;;;5004983;28;19929;-73
2022/10/12 16:15:09;;;;;;;;;;;18.00;99.90;;;;;;5005055;28;19926;-68
2022/10/12 16:17:35;;;;;;;;;;;17.90;99.90;;;;;;5002815;28;19932;-67
2022/10/12 16:20:02;;;;;;;;;;;17.80;99.90;;;;;;4997747;28;19929;-68
2022/10/12 16:22:29;;;;;;;;;;;17.70;99.90;;;;;;4995672;28;19933;-68
2022/10/12 16:24:56;;;;;;;;;;;17.60;99.90;;;;;;5007618;28;19976;-68
2022/10/12 16:27:24;;;;;;;;;;;17.50;99.90;;;;;;4996089;28;19925;-68
2022/10/12 16:29:51;;;;;;;;;;;17.40;99.90;;;;;;5002920;28;19965;-68
2022/10/12 16:32:18;;;;;;;;;;;17.30;99.90;;;;;;5003079;28;19926;-68
2022/10/12 16:34:44;;;;;;;;;;;17.10;99.90;;;;;;5007361;28;19932;-68
2022/10/12 16:37:11;;;;;;;;;;;16.90;99.90;;;;;;5001657;28;19925;-67
2022/10/12 16:39:38;;;;;;;;;;;16.80;99.90;;;;;;5006978;28;19929;-67
2022/10/12 16:42:05;;;;;;;;;;;16.70;99.90;;;;;;4997649;28;19973;-67
2022/10/12 16:44:33;;;;;;;;;;;16.50;99.90;;;;;;5002538;28;19929;-67
2022/10/12 16:47:00;;;;;;;;;;;16.40;99.90;;;;;;5006057;28;19929;-67
2022/10/12 16:49:27;;;;;;;;;;;16.20;99.90;;;;;;4999950;28;19933;-67
2022/10/12 16:51:54;;;;;;;;;;;16.10;99.90;;;;;;4999582;28;19929;-67
2022/10/12 16:54:22;;;;;;;;;;;15.80;99.90;;;;;;5004208;28;19934;-67
2022/10/12 16:56:48;;;;;;;;;;;15.70;99.90;;;;;;4998340;28;19929;-67
2022/10/12 16:59:15;;;;;;;;;;;15.60;99.90;;;;;;5007763;28;19929;-68
2022/10/12 17:01:43;;;;;;;;;;;15.50;99.90;;;;;;5005949;28;20303;-68
2022/10/12 17:04:10;;;;;;;;;;;15.40;99.90;;;;;;5004874;28;19981;-70
2022/10/12 17:06:37;;;;;;;;;;;15.30;99.90;;;;;;5026593;28;19969;-69
2022/10/12 17:09:04;;;;;;;;;;;15.20;99.90;;;;;;5008768;28;19926;-68
2022/10/12 17:11:30;;;;;;;;;;;15.10;99.90;;;;;;5005149;28;19980;-70
2022/10/12 17:13:57;;;;;;;;;;;15.00;99.90;;;;;;5006920;28;19984;-68
2022/10/12 17:19:10;;;;;;;;;;;14.80;99.90;;;;;;5003774;28;19932;-68
2022/10/12 17:21:40;;;;;;;;;;;14.80;99.90;;;;;;5009422;28;19937;-68
2022/10/12 17:24:08;;;;;;;;;;;14.70;99.90;;;;;;5005221;28;19932;-68
2022/10/12 17:26:35;;;;;;;;;;;14.70;99.90;;;;;;5042279;23;20448;-70
2022/10/12 17:29:03;;;;;;;;;;;14.60;99.90;;;;;;5019829;28;20399;-69
2022/10/12 17:31:30;;;;;;;;;;;14.60;99.90;;;;;;5020043;28;19925;-70
2022/10/12 17:33:57;;;;;;;;;;;14.50;99.90;;;;;;5020875;28;19953;-69
2022/10/12 17:36:25;;;;;;;;;;;14.40;99.90;;;;;;5006233;28;20019;-69